createdAt,value
2018-12-17T00:01:52.950Z,100910.36
2018-12-17T00:04:23.698Z,100915.14
2018-12-17T00:10:01.438Z,100913.06
2018-12-17T00:12:30.622Z,100913.86
2018-12-17T00:14:59.734Z,100913.42
2018-12-17T00:17:28.841Z,100912.92
2018-12-17T00:19:57.902Z,100910.34
2018-12-17T00:22:27.022Z,100910.23
2018-12-17T00:24:56.044Z,100909.79
2018-12-17T00:27:25.111Z,100915.83
2018-12-17T00:29:54.251Z,100923.06
2018-12-17T00:32:23.236Z,100917.97
2018-12-17T00:34:52.175Z,100919.17
2018-12-17T00:37:21.226Z,100915.19
2018-12-17T00:39:50.231Z,100915.19
2018-12-17T00:42:19.210Z,100915.63
2018-12-17T00:44:48.222Z,100921.20
2018-12-17T00:47:17.123Z,100916.77
2018-12-17T00:49:46.115Z,100915.34
2018-12-17T00:52:15.102Z,100915.84
2018-12-17T00:54:44.105Z,100920.50
2018-12-17T00:57:13.174Z,100917.52
2018-12-17T00:59:42.310Z,100913.64
2018-12-17T01:02:11.449Z,100917.52
2018-12-17T01:04:40.393Z,100910.56
2018-12-17T01:07:09.450Z,100913.56
2018-12-17T01:09:38.442Z,100916.94
2018-12-17T01:12:07.434Z,100920.89
2018-12-17T01:14:36.430Z,100922.16
2018-12-17T01:17:05.408Z,100918.28
2018-12-17T01:19:34.457Z,100922.47
2018-12-17T01:22:03.396Z,100919.08
2018-12-17T01:24:32.446Z,100916.98
2018-12-17T01:27:01.303Z,100924.55
2018-12-17T01:29:30.294Z,100919.31
2018-12-17T01:31:59.304Z,100911.92
2018-12-17T01:34:28.312Z,100919.19
2018-12-17T01:36:57.355Z,100923.06
2018-12-17T01:39:26.562Z,100924.71
2018-12-17T01:41:55.927Z,100922.98
2018-12-17T01:44:24.859Z,100914.38
2018-12-17T01:46:54.013Z,100921.27
2018-12-17T01:49:22.920Z,100928.08
2018-12-17T01:51:51.836Z,100924.27
2018-12-17T01:54:20.844Z,100924.27
2018-12-17T01:56:49.891Z,100930.28
2018-12-17T01:59:18.815Z,100934.48
2018-12-17T02:01:47.832Z,100932.31
2018-12-17T02:04:16.799Z,100933.19
2018-12-17T02:06:45.785Z,100929.88
2018-12-17T02:09:14.642Z,100932.80
2018-12-17T02:11:43.846Z,100934.97
2018-12-17T02:14:13.151Z,100935.74
2018-12-17T02:16:42.374Z,100932.69
2018-12-17T02:19:11.455Z,100928.50
2018-12-17T02:21:40.436Z,100927.14
2018-12-17T02:24:09.367Z,100928.20
2018-12-17T02:26:38.352Z,100925.94
2018-12-17T02:29:07.343Z,100931.10
2018-12-17T02:31:36.753Z,100928.87
2018-12-17T02:34:06.628Z,100929.29
2018-12-17T02:36:35.766Z,100927.88
2018-12-17T02:39:07.811Z,100930.75
2018-12-17T02:41:38.739Z,100932.48
2018-12-17T02:44:07.914Z,100936.21
2018-12-17T02:46:36.722Z,100930.98
2018-12-17T02:49:05.912Z,100926.67
2018-12-17T02:51:36.684Z,100929.81
2018-12-17T02:54:06.154Z,100930.69
2018-12-17T02:56:35.253Z,100931.11
2018-12-17T02:59:05.138Z,100938.73
2018-12-17T03:01:34.182Z,100944.37
2018-12-17T03:04:03.059Z,100942.11
2018-12-17T03:06:32.139Z,100945.48
2018-12-17T03:09:01.017Z,100942.52
2018-12-17T03:11:31.885Z,100944.16
2018-12-17T03:14:00.859Z,100952.29
2018-12-17T03:16:30.094Z,100951.84
2018-12-17T03:18:58.871Z,100948.56
2018-12-17T03:21:28.003Z,100955.81
2018-12-17T03:23:57.218Z,100955.37
2018-12-17T03:26:26.156Z,100964.05
2018-12-17T03:28:55.191Z,100950.41
2018-12-17T03:31:24.341Z,100957.22
2018-12-17T03:33:53.811Z,100953.78
2018-12-17T03:36:22.721Z,100958.89
2018-12-17T03:38:52.131Z,100964.03
2018-12-17T03:41:21.026Z,100959.69
2018-12-17T03:43:50.119Z,100958.09
2018-12-17T03:46:19.075Z,100963.33
2018-12-17T03:48:47.989Z,100958.22
2018-12-17T03:51:17.058Z,100960.68
2018-12-17T03:53:46.059Z,100957.36
2018-12-17T03:56:15.116Z,100960.88
2018-12-17T03:58:43.949Z,100959.65
2018-12-17T04:01:13.044Z,100951.61
2018-12-17T04:03:41.931Z,100963.23
2018-12-17T04:06:11.008Z,100964.08
2018-12-17T04:08:39.933Z,100963.28
2018-12-17T04:11:09.147Z,100962.00
2018-12-17T04:13:37.900Z,100966.11
2018-12-17T04:16:07.024Z,100960.00
2018-12-17T04:18:36.364Z,100962.47
2018-12-17T04:21:05.568Z,100965.47
2018-12-17T04:23:34.494Z,100970.48
2018-12-17T04:26:05.331Z,100966.55
2018-12-17T04:28:34.332Z,100962.38
2018-12-17T04:31:03.464Z,100959.07
2018-12-17T04:33:32.306Z,100955.22
2018-12-17T04:36:01.716Z,100962.73
2018-12-17T04:38:30.706Z,100960.30
2018-12-17T04:40:59.587Z,100968.34
2018-12-17T04:43:28.575Z,100964.44
2018-12-17T04:45:57.627Z,100969.63
2018-12-17T04:48:26.643Z,100967.45
2018-12-17T04:50:55.552Z,100969.13
2018-12-17T04:53:24.694Z,100969.05
2018-12-17T04:55:53.610Z,100963.38
2018-12-17T04:58:22.554Z,100961.65
2018-12-17T05:00:51.594Z,100967.63
2018-12-17T05:03:20.509Z,100964.55
2018-12-17T05:05:49.499Z,100974.38
2018-12-17T05:08:18.733Z,100967.55
2018-12-17T05:10:47.576Z,100971.06
2018-12-17T05:13:16.492Z,100966.81
2018-12-17T05:15:45.639Z,100967.34
2018-12-17T05:18:14.623Z,100971.21
2018-12-17T05:20:43.542Z,100968.30
2018-12-17T05:23:12.533Z,100973.41
2018-12-17T05:25:41.522Z,100972.91
2018-12-17T05:28:10.558Z,100972.91
2018-12-17T05:30:39.510Z,100973.30
2018-12-17T05:33:08.598Z,100984.09
2018-12-17T05:35:37.405Z,100982.45
2018-12-17T05:38:06.462Z,100984.53
2018-12-17T05:40:35.626Z,100987.05
2018-12-17T05:43:05.237Z,100983.98
2018-12-17T05:45:34.312Z,100987.21
2018-12-17T05:48:03.717Z,100987.09
2018-12-17T05:50:32.661Z,100994.84
2018-12-17T05:53:01.598Z,100996.98
2018-12-17T05:55:30.658Z,101003.88
2018-12-17T05:57:59.578Z,101008.46
2018-12-17T06:00:28.702Z,101008.84
2018-12-17T06:02:57.803Z,101008.84
2018-12-17T06:05:27.078Z,101003.67
2018-12-17T06:07:55.837Z,101009.70
2018-12-17T06:10:24.783Z,101010.55
2018-12-17T06:12:53.825Z,101010.19
2018-12-17T06:15:22.814Z,101009.34
2018-12-17T06:17:51.897Z,101013.13
2018-12-17T06:20:21.335Z,101012.77
2018-12-17T06:22:50.934Z,101013.69
2018-12-17T06:25:19.628Z,101019.23
2018-12-17T06:27:48.394Z,101020.96
2018-12-17T06:30:17.463Z,101019.78
2018-12-17T06:32:46.374Z,101023.66
2018-12-17T06:35:15.491Z,101028.83
2018-12-17T06:37:44.455Z,101024.54
2018-12-17T06:40:13.430Z,101031.91
2018-12-17T06:42:42.346Z,101029.38
2018-12-17T06:45:11.347Z,101022.75
2018-12-17T06:47:40.416Z,101027.03
2018-12-17T06:50:09.470Z,101028.27
2018-12-17T06:52:38.550Z,101031.20
2018-12-17T06:55:07.545Z,101035.94
2018-12-17T06:57:36.287Z,101036.38
2018-12-17T07:00:06.558Z,101038.75
2018-12-17T07:02:36.215Z,101045.89
2018-12-17T07:05:06.216Z,101042.57
2018-12-17T07:07:35.038Z,101045.09
2018-12-17T07:10:04.511Z,101046.80
2018-12-17T07:12:33.487Z,101049.77
2018-12-17T07:15:02.387Z,101044.83
2018-12-17T07:17:31.321Z,101050.80
2018-12-17T07:20:00.380Z,101053.73
2018-12-17T07:22:29.752Z,101051.09
2018-12-17T07:24:58.595Z,101058.45
2018-12-17T07:27:27.650Z,101059.31
2018-12-17T07:29:56.666Z,101060.69
2018-12-17T07:32:25.595Z,101065.27
2018-12-17T07:34:54.643Z,101061.84
2018-12-17T07:37:23.842Z,101064.42
2018-12-17T07:39:52.923Z,101059.11
2018-12-17T07:42:21.861Z,101068.38
2018-12-17T07:44:50.900Z,101070.83
2018-12-17T07:47:19.884Z,101071.20
2018-12-17T07:49:49.971Z,101074.70
2018-12-17T07:52:18.895Z,101074.23
2018-12-17T07:54:47.718Z,101076.88
2018-12-17T07:57:16.736Z,101080.75
2018-12-17T07:59:45.710Z,101080.66
2018-12-17T08:02:14.780Z,101083.54
2018-12-17T08:04:43.918Z,101091.17
2018-12-17T08:07:12.674Z,101099.63
2018-12-17T08:09:41.679Z,101093.55
2018-12-17T08:12:10.693Z,101098.92
2018-12-17T08:14:39.812Z,101099.72
2018-12-17T08:17:09.662Z,101096.70
2018-12-17T08:19:38.579Z,101104.39
2018-12-17T08:22:07.630Z,101105.69
2018-12-17T08:24:36.626Z,101109.06
2018-12-17T08:27:05.711Z,101108.19
2018-12-17T08:29:34.598Z,101107.39
2018-12-17T08:32:04.602Z,101114.73
2018-12-17T08:34:33.463Z,101113.38
2018-12-17T08:37:02.431Z,101120.98
2018-12-17T08:39:31.502Z,101114.02
2018-12-17T08:42:00.415Z,101113.17
2018-12-17T08:44:29.554Z,101119.20
2018-12-17T08:46:58.479Z,101117.41
2018-12-17T08:49:27.411Z,101120.28
2018-12-17T08:51:56.472Z,101116.34
2018-12-17T08:54:25.401Z,101122.66
2018-12-17T08:56:54.460Z,101114.05
2018-12-17T08:59:24.286Z,101116.77
2018-12-17T09:01:53.419Z,101121.09
2018-12-17T09:04:22.365Z,101125.83
2018-12-17T09:06:51.330Z,101120.12
2018-12-17T09:09:20.274Z,101122.55
2018-12-17T09:11:49.076Z,101129.81
2018-12-17T09:14:17.939Z,101128.94
2018-12-17T09:16:46.924Z,101136.00
2018-12-17T09:19:15.995Z,101137.01
2018-12-17T09:21:45.056Z,101139.50
2018-12-17T09:24:14.056Z,101144.77
2018-12-17T09:26:42.992Z,101142.03
2018-12-17T09:29:12.027Z,101151.38
2018-12-17T09:31:40.875Z,101148.79
2018-12-17T09:34:10.809Z,101152.95
2018-12-17T09:36:39.784Z,101151.59
2018-12-17T09:39:08.864Z,101152.80
2018-12-17T09:41:39.766Z,101156.24
2018-12-17T09:44:08.615Z,101159.63
2018-12-17T09:46:37.807Z,101159.65
2018-12-17T09:49:06.592Z,101162.94
2018-12-17T09:51:35.578Z,101163.73
2018-12-17T09:54:05.322Z,101163.31
2018-12-17T09:56:34.339Z,101168.97
2018-12-17T09:59:04.238Z,101167.55
2018-12-17T10:01:39.669Z,101163.16
2018-12-17T10:04:08.607Z,101158.90
2018-12-17T10:06:37.542Z,101156.03
2018-12-17T10:09:07.142Z,101161.48
2018-12-17T10:11:37.955Z,101154.60
2018-12-17T10:14:07.197Z,101154.23
2018-12-17T10:16:36.371Z,101155.14
2018-12-17T10:19:05.315Z,101155.86
2018-12-17T10:21:34.458Z,101159.75
2018-12-17T10:24:03.783Z,101162.78
2018-12-17T10:26:32.907Z,101160.06
2018-12-17T10:29:01.828Z,101155.64
2018-12-17T10:31:30.892Z,101163.91
2018-12-17T10:33:59.879Z,101162.42
2018-12-17T10:36:28.799Z,101164.92
2018-12-17T10:38:58.028Z,101162.83
2018-12-17T10:41:26.808Z,101165.31
2018-12-17T10:43:57.694Z,101166.31
2018-12-17T10:46:26.698Z,101168.84
2018-12-17T10:48:55.620Z,101168.39
2018-12-17T10:51:24.601Z,101165.46
2018-12-17T10:53:53.617Z,101170.03
2018-12-17T10:56:22.639Z,101170.62
2018-12-17T10:58:51.570Z,101162.23
2018-12-17T11:01:25.885Z,101167.62
2018-12-17T11:04:01.058Z,101165.72
2018-12-17T11:06:30.063Z,101166.53
2018-12-17T11:08:58.987Z,101166.94
2018-12-17T11:11:28.042Z,101166.88
2018-12-17T11:13:56.992Z,101165.48
2018-12-17T11:16:25.968Z,101170.45
2018-12-17T11:18:54.954Z,101171.58
2018-12-17T11:21:24.012Z,101167.45
2018-12-17T11:23:52.863Z,101167.78
2018-12-17T11:26:21.856Z,101169.87
2018-12-17T11:28:50.930Z,101168.70
2018-12-17T11:31:19.899Z,101168.59
2018-12-17T11:33:48.828Z,101164.05
2018-12-17T11:36:17.974Z,101167.39
2018-12-17T11:38:46.904Z,101171.47
2018-12-17T11:41:15.815Z,101170.03
2018-12-17T11:43:44.875Z,101171.55
2018-12-17T11:46:13.815Z,101172.64
2018-12-17T11:48:43.003Z,101172.97
2018-12-17T11:51:12.222Z,101179.27
2018-12-17T11:53:41.150Z,101177.84
2018-12-17T11:56:10.214Z,101179.47
2018-12-17T11:58:39.147Z,101187.62
2018-12-17T12:01:10.879Z,101188.73
2018-12-17T12:03:42.486Z,101186.41
2018-12-17T12:06:14.338Z,101188.48
2018-12-17T12:08:42.090Z,101197.45
2018-12-17T12:11:11.160Z,101189.59
2018-12-17T12:13:39.943Z,101186.81
2018-12-17T12:16:08.852Z,101188.89
2018-12-17T12:18:37.858Z,101189.66
2018-12-17T12:21:08.297Z,101190.89
2018-12-17T12:23:37.402Z,101189.44
2018-12-17T12:26:06.270Z,101200.42
